Time;durP1;ratioP1;P1;durP2;ratioP2;P2;SDS_P1;SDS_P2;PMS_P1;PMS_P2;Temp;Humidity;BMP_temperature;BMP_pressure;BME280_temperature;BME280_humidity;BME280_pressure;Samples;Min_cycle;Max_cycle;Signal;HPM_P1;HPM_P2
2023/10/17 00:01:10;;;;;;;3.10;0.68;;;;;;;9.23;69.59;100593.22;5067301;28;20024;-61
2023/10/17 00:03:37;;;;;;;3.15;1.42;;;;;;;9.30;69.78;100583.69;5067660;28;20109;-62
2023/10/17 00:06:06;;;;;;;0.50;0.50;;;;;;;9.32;70.12;100576.78;5067415;28;20032;-62
2023/10/17 00:08:34;;;;;;;0.70;0.70;;;;;;;9.39;70.43;100581.09;5067159;28;20512;-61
2023/10/17 00:11:15;;;;;;;1.08;0.55;;;;;;;9.40;71.23;100575.06;5067079;28;20338;-61
2023/10/17 00:16:30;;;;;;;0.47;0.45;;;;;;;9.47;71.02;100570.75;5066826;28;20032;-62
2023/10/17 00:18:57;;;;;;;0.60;0.60;;;;;;;9.58;71.02;100577.63;5066918;28;20162;-62
2023/10/17 00:21:23;;;;;;;0.73;0.60;;;;;;;9.59;70.96;100581.94;5066657;28;20136;-61
2023/10/17 00:23:50;;;;;;;0.50;0.50;;;;;;;9.54;71.10;100581.94;5067357;28;20029;-62
2023/10/17 00:26:18;;;;;;;2.55;0.82;;;;;;;9.58;70.95;100590.59;5066969;28;20377;-61
2023/10/17 00:28:45;;;;;;;0.80;0.70;;;;;;;9.53;70.86;100582.81;5066981;28;20029;-62
2023/10/17 00:31:10;;;;;;;0.63;0.63;;;;;;;9.60;71.16;100581.09;5066259;28;20039;-62
2023/10/17 00:33:37;;;;;;;0.80;0.70;;;;;;;9.59;71.13;100584.53;5066946;28;20025;-61
2023/10/17 00:36:04;;;;;;;3.80;0.75;;;;;;;9.62;71.57;100585.41;5066652;28;20048;-61
2023/10/17 00:38:35;;;;;;;2.15;0.88;;;;;;;9.62;71.64;100587.13;5066649;28;20021;-62
2023/10/17 00:41:08;;;;;;;0.90;0.80;;;;;;;9.51;72.01;100561.22;5066812;28;20074;-62
2023/10/17 00:43:35;;;;;;;0.43;0.43;;;;;;;9.64;71.72;100582.81;5066552;28;20055;-62
2023/10/17 00:46:00;;;;;;;0.80;0.55;;;;;;;9.51;71.57;100545.66;5065729;28;20074;-61
2023/10/17 00:48:27;;;;;;;7.68;0.50;;;;;;;9.60;71.82;100568.97;5066527;28;20048;-62
2023/10/17 00:51:06;;;;;;;2.30;1.02;;;;;;;9.62;71.76;100580.22;5066399;28;20056;-61
2023/10/17 00:53:32;;;;;;;1.30;0.75;;;;;;;9.60;71.60;100575.91;5065025;28;20028;-62
2023/10/17 00:55:59;;;;;;;2.20;0.68;;;;;;;9.63;71.53;100575.91;5066303;28;20080;-61
2023/10/17 00:58:24;;;;;;;1.90;0.63;;;;;;;9.60;71.99;100575.91;5066248;28;20028;-61
2023/10/17 01:00:58;;;;;;;1.15;0.50;;;;;;;9.61;71.66;100578.50;5065924;28;20031;-62
2023/10/17 01:03:25;;;;;;;0.60;0.60;;;;;;;9.59;72.06;100572.44;5066110;28;20036;-62
2023/10/17 01:08:50;;;;;;;1.20;0.93;;;;;;;9.58;72.25;100565.53;5066498;28;20036;-61
2023/10/17 01:11:21;;;;;;;2.35;1.02;;;;;;;9.64;72.24;100549.09;5065994;28;20052;-61
2023/10/17 01:13:49;;;;;;;1.85;0.80;;;;;;;9.72;72.06;100554.28;5065802;28;20052;-62
2023/10/17 01:16:16;;;;;;;1.85;0.88;;;;;;;9.75;72.66;100546.47;5065526;28;20031;-61
2023/10/17 01:18:45;;;;;;;0.40;0.40;;;;;;;9.82;72.11;100542.16;5066022;28;20028;-61
2023/10/17 01:21:12;;;;;;;0.73;0.60;;;;;;;9.92;72.08;100542.09;5065644;28;20028;-62
2023/10/17 01:23:38;;;;;;;0.50;0.50;;;;;;;9.96;72.21;100539.50;5065600;28;20021;-61
2023/10/17 01:26:08;;;;;;;1.13;0.85;;;;;;;9.94;72.17;100531.72;5064293;28;20055;-61
2023/10/17 01:28:36;;;;;;;2.95;1.25;;;;;;;10.05;72.00;100529.09;5065879;28;20036;-62
2023/10/17 01:31:03;;;;;;;1.27;0.98;;;;;;;10.08;72.20;100528.22;5065501;28;20039;-62
2023/10/17 01:33:33;;;;;;;7.57;1.05;;;;;;;10.08;72.21;100529.06;5065658;28;20028;-61
2023/10/17 01:36:00;;;;;;;4.70;1.35;;;;;;;10.05;72.46;100531.69;5065650;28;20162;-61
2023/10/17 01:38:26;;;;;;;0.45;0.45;;;;;;;10.05;72.11;100531.69;5065526;28;20047;-63
2023/10/17 01:40:53;;;;;;;1.00;0.95;;;;;;;10.00;72.39;100512.69;5065508;28;20021;-62
2023/10/17 01:43:19;;;;;;;0.63;0.63;;;;;;;10.06;72.35;100511.81;5064777;28;20017;-62
2023/10/17 01:45:48;;;;;;;1.23;0.88;;;;;;;9.98;72.26;100520.50;5065019;28;20075;-62
2023/10/17 01:48:13;;;;;;;0.80;0.80;;;;;;;9.91;72.09;100517.06;5065460;28;20016;-62
2023/10/17 01:50:39;;;;;;;0.63;0.63;;;;;;;9.90;72.17;100517.91;5065047;28;20492;-60
2023/10/17 01:53:12;;;;;;;2.10;0.80;;;;;;;9.90;72.10;100522.25;5065540;28;20028;-62
2023/10/17 01:55:42;;;;;;;5.10;0.70;;;;;;;9.84;72.09;100523.13;5065199;28;20079;-62
2023/10/17 01:58:08;;;;;;;0.60;0.60;;;;;;;9.81;71.96;100517.09;5065300;28;20481;-62
2023/10/17 02:03:00;;;;;;;5.05;0.70;;;;;;;9.76;72.02;100520.53;5064991;28;20473;-62
2023/10/17 02:05:26;;;;;;;0.40;0.40;;;;;;;9.72;71.96;100521.44;5065524;28;20056;-62
2023/10/17 02:07:54;;;;;;;1.23;0.85;;;;;;;9.69;72.14;100524.03;5065645;28;20036;-61
2023/10/17 02:10:25;;;;;;;0.45;0.45;;;;;;;9.67;72.45;100523.16;5065545;28;20025;-62
2023/10/17 02:12:51;;;;;;;1.02;1.02;;;;;;;9.67;72.86;100521.44;5065503;28;20043;-62
2023/10/17 02:15:22;;;;;;;8.35;1.00;;;;;;;9.67;72.37;100518.84;5065671;28;20031;-62
2023/10/17 02:17:48;;;;;;;0.95;0.88;;;;;;;9.66;72.54;100527.47;5065431;28;20055;-61
2023/10/17 02:20:21;;;;;;;3.20;1.05;;;;;;;9.62;72.81;100518.00;5065353;28;20040;-62
2023/10/17 02:22:49;;;;;;;1.33;1.17;;;;;;;9.60;72.94;100505.94;5065392;28;20033;-61
2023/10/17 02:25:16;;;;;;;2.10;0.93;;;;;;;9.61;73.04;100511.09;5065567;28;20031;-62
2023/10/17 02:27:44;;;;;;;2.42;0.85;;;;;;;9.62;72.94;100518.00;5065456;28;20035;-60
2023/10/17 02:30:14;;;;;;;6.72;0.90;;;;;;;9.66;72.78;100519.72;5065429;28;20041;-61
2023/10/17 02:32:44;;;;;;;4.35;0.80;;;;;;;9.59;72.74;100518.00;5065203;28;20043;-61
2023/10/17 02:35:14;;;;;;;1.40;0.63;;;;;;;9.55;72.70;100511.13;5065423;28;20032;-62
2023/10/17 02:37:43;;;;;;;1.13;0.75;;;;;;;9.59;72.53;100515.41;5065573;28;20021;-62
2023/10/17 02:40:20;;;;;;;3.63;0.88;;;;;;;9.60;72.53;100522.31;5063865;28;20028;-61
2023/10/17 02:42:45;;;;;;;0.50;0.50;;;;;;;9.62;72.50;100519.72;5065124;28;20039;-62
2023/10/17 02:45:11;;;;;;;1.27;0.75;;;;;;;9.61;72.67;100524.06;5065011;28;20057;-62
2023/10/17 02:47:36;;;;;;;4.78;1.38;;;;;;;9.60;72.67;100521.47;5047102;28;20017;-61
2023/10/17 02:50:19;;;;;;;0.40;0.40;;;;;;;9.58;72.62;100524.06;5065084;28;20036;-61
2023/10/17 02:52:47;;;;;;;4.57;1.52;;;;;;;9.62;72.53;100528.38;5065094;28;20052;-62
2023/10/17 02:55:23;;;;;;;2.30;0.82;;;;;;;9.63;72.45;100529.25;5067772;28;20083;-61
2023/10/17 02:57:50;;;;;;;1.17;0.55;;;;;;;9.62;72.46;100538.75;5069407;28;20515;-61
2023/10/17 03:00:33;;;;;;;12.55;1.42;;;;;;;9.65;72.62;100528.38;5069178;28;20372;-61
2023/10/17 03:02:59;;;;;;;1.50;1.10;;;;;;;9.62;72.65;100536.16;5068844;28;20047;-62
2023/10/17 03:05:27;;;;;;;3.35;1.77;;;;;;;9.67;72.40;100551.69;5069153;28;20124;-61
2023/10/17 03:07:52;;;;;;;1.58;1.02;;;;;;;9.68;72.46;100553.41;5069112;28;20107;-61
2023/10/17 03:10:37;;;;;;;1.00;0.52;;;;;;;9.66;72.52;100548.22;5068834;28;20071;-61
2023/10/17 03:13:22;;;;;;;0.60;0.60;;;;;;;9.65;72.37;100533.53;5068763;28;20473;-61
2023/10/17 03:15:57;;;;;;;1.23;0.98;;;;;;;9.63;72.40;100539.63;5068653;28;20075;-62
2023/10/17 03:18:22;;;;;;;2.55;0.82;;;;;;;9.67;72.21;100544.78;5069061;28;20082;-61
2023/10/17 03:20:51;;;;;;;3.45;0.77;;;;;;;9.70;72.27;100540.44;5068674;28;20028;-60
2023/10/17 03:23:32;;;;;;;2.88;0.82;;;;;;;9.66;72.32;100545.63;5068608;28;20021;-62
2023/10/17 03:26:00;;;;;;;1.10;0.73;;;;;;;9.69;72.09;100543.91;5068709;28;20017;-61
2023/10/17 03:28:32;;;;;;;2.63;0.75;;;;;;;9.65;72.23;100541.31;5068487;28;20035;-60
2023/10/17 03:30:57;;;;;;;2.45;0.98;;;;;;;9.63;72.12;100530.09;5068406;28;20043;-61
2023/10/17 03:33:32;;;;;;;2.03;0.93;;;;;;;9.64;72.16;100531.84;5068451;28;20025;-62
2023/10/17 03:38:27;;;;;;;7.88;0.93;;;;;;;9.60;72.11;100534.44;5068598;28;20025;-61
2023/10/17 03:40:53;;;;;;;4.15;1.42;;;;;;;9.61;72.11;100537.03;5068255;28;20028;-61
2023/10/17 03:43:22;;;;;;;0.45;0.38;;;;;;;9.61;72.37;100534.44;5068374;28;20455;-63
2023/10/17 03:45:58;;;;;;;6.65;1.40;;;;;;;9.59;72.30;100525.78;5067677;28;20060;-61
2023/10/17 03:48:28;;;;;;;2.42;1.35;;;;;;;9.68;72.54;100537.84;5068206;28;20048;-62
2023/10/17 03:53:29;;;;;;;0.52;0.50;;;;;;;9.74;72.12;100537.00;5068164;28;20013;-62
2023/10/17 03:56:00;;;;;;;0.43;0.43;;;;;;;9.72;72.32;100533.53;5068144;28;20088;-61
2023/10/17 04:00:56;;;;;;;2.15;0.88;;;;;;;9.62;72.06;100504.16;5067505;28;20469;-62
2023/10/17 04:03:25;;;;;;;2.95;1.23;;;;;;;9.79;72.30;100538.69;5068042;28;20033;-62
2023/10/17 04:06:01;;;;;;;0.63;0.63;;;;;;;9.83;72.06;100534.38;5067096;28;20040;-63
2023/10/17 04:08:31;;;;;;;8.93;1.27;;;;;;;9.86;72.05;100528.28;5049924;28;20059;-61
2023/10/17 04:13:41;;;;;;;2.08;1.33;;;;;;;9.87;71.85;100517.91;5067932;28;20055;-60
2023/10/17 04:16:17;;;;;;;4.50;0.93;;;;;;;9.89;71.56;100529.16;5067539;28;20033;-61
2023/10/17 04:18:45;;;;;;;0.80;0.70;;;;;;;9.86;71.38;100525.69;5067519;28;20358;-61
2023/10/17 04:21:45;;;;;;;2.75;1.33;;;;;;;9.85;71.29;100527.44;5067646;28;20024;-60
2023/10/17 04:24:05;;;;;;;0.70;0.70;;;;;;;9.81;71.00;100523.13;5064489;28;20120;-61
2023/10/17 04:26:34;;;;;;;0.77;0.63;;;;;;;9.75;71.04;100528.34;5067548;28;20085;-61
2023/10/17 04:29:11;;;;;;;1.50;0.70;;;;;;;9.73;70.93;100525.75;5067596;28;20029;-61
2023/10/17 04:31:37;;;;;;;3.03;1.55;;;;;;;9.72;70.96;100517.97;5067202;28;20028;-63
2023/10/17 04:34:06;;;;;;;3.90;0.70;;;;;;;9.71;70.65;100508.47;5067496;28;20088;-59
2023/10/17 04:36:36;;;;;;;2.95;1.23;;;;;;;9.64;70.70;100516.28;5067221;28;20130;-61
2023/10/17 04:44:38;;;;;;;1.00;1.00;;;;;;;9.74;70.39;100526.63;5067589;28;20021;-63
2023/10/17 04:49:35;;;;;;;7.95;1.48;;;;;;;9.76;70.38;100524.91;5067354;28;20033;-63
2023/10/17 04:55:17;;;;;;;1.73;0.80;;;;;;;9.81;69.83;100515.34;5022487;28;20028;-62
2023/10/17 05:03:16;;;;;;;0.40;0.40;;;;;;;9.81;69.44;100510.16;5066805;28;20085;-63
2023/10/17 05:07:13;;;;;;;4.38;1.13;;;;;;;9.81;69.56;100498.94;5066946;28;20025;-63
2023/10/17 05:08:37;;;;;;;1.20;1.02;;;;;;;9.81;69.35;100509.31;5052622;28;20402;-61
2023/10/17 06:17:00;;;;;;;2.47;1.00;;;;;;;10.31;70.37;100528.09;5065225;28;20162;-63
2023/10/17 06:19:27;;;;;;;6.88;0.82;;;;;;;10.34;70.56;100527.22;5065672;28;20024;-63
2023/10/17 06:35:31;;;;;;;0.70;0.70;;;;;;;10.62;69.64;100537.47;5065450;28;20060;-63
2023/10/17 06:37:57;;;;;;;7.30;1.60;;;;;;;10.65;69.38;100517.53;5065073;28;20035;-62
2023/10/17 06:40:30;;;;;;;2.83;1.00;;;;;;;10.69;69.51;100522.72;5064871;28;20029;-62
2023/10/17 06:42:59;;;;;;;1.63;1.40;;;;;;;10.77;69.36;100536.50;5065117;28;20033;-63
2023/10/17 06:45:26;;;;;;;1.45;0.90;;;;;;;10.80;69.15;100538.22;5064953;28;20380;-62
2023/10/17 06:47:57;;;;;;;2.25;1.50;;;;;;;10.86;69.19;100528.63;5064789;28;20021;-63
2023/10/17 06:53:11;;;;;;;5.45;1.50;;;;;;;10.89;68.56;100527.78;5065254;28;20032;-62
2023/10/17 06:55:43;;;;;;;9.35;1.70;;;;;;;10.84;68.28;100530.41;5047195;28;20116;-63
2023/10/17 06:58:09;;;;;;;;;;;;;;;10.88;68.07;100534.69;5065667;28;20036;-62
2023/10/17 07:00:53;;;;;;;9.05;1.77;;;;;;;10.89;67.94;100531.22;5065384;28;19912;-63
2023/10/17 07:03:25;;;;;;;3.72;1.40;;;;;;;10.99;67.95;100536.34;5064969;28;20025;-63
2023/10/17 07:05:52;;;;;;;2.03;1.25;;;;;;;11.00;67.69;100543.25;5065196;28;20028;-63
2023/10/17 07:08:21;;;;;;;8.60;1.50;;;;;;;11.08;66.92;100530.22;5063883;28;20021;-62
2023/10/17 07:16:41;;;;;;;1.58;0.73;;;;;;;11.24;65.85;100541.34;5064798;28;20029;-61
2023/10/17 07:19:46;;;;;;;2.20;1.00;;;;;;;11.33;65.76;100546.44;5064878;28;20043;-62
2023/10/17 07:24:29;;;;;;;0.80;0.80;;;;;;;11.39;65.37;100541.19;5065170;28;20053;-62
2023/10/17 07:26:55;;;;;;;7.30;1.40;;;;;;;11.44;64.97;100538.53;5064662;28;20033;-63
2023/10/17 07:29:23;;;;;;;3.58;1.10;;;;;;;11.49;64.91;100541.97;5064800;28;20028;-62
2023/10/17 07:31:54;;;;;;;2.63;0.95;;;;;;;11.57;64.77;100534.06;5064592;28;20013;-62
2023/10/17 07:34:21;;;;;;;0.75;0.75;;;;;;;11.51;63.87;100527.22;5064707;28;20048;-62
2023/10/17 07:36:54;;;;;;;4.20;1.10;;;;;;;11.53;62.98;100530.63;5064970;28;20033;-62
2023/10/17 07:39:29;;;;;;;14.75;1.10;;;;;;;11.55;62.82;100535.81;5064846;28;20029;-63
2023/10/17 07:41:55;;;;;;;0.65;0.60;;;;;;;11.64;63.04;100524.47;5066484;28;20075;-62
2023/10/17 07:44:27;;;;;;;1.05;0.82;;;;;;;11.82;63.30;100539.00;5068468;28;20116;-63
2023/10/17 07:47:09;;;;;;;;;;;;;;;12.00;62.67;100531.84;5068457;28;20045;-63
2023/10/17 07:49:42;;;;;;;3.83;0.82;;;;;;;12.01;61.85;100531.00;5068500;28;19912;-63
2023/10/17 07:52:22;;;;;;;2.40;0.93;;;;;;;12.16;62.11;100531.72;5068112;28;20031;-63
2023/10/17 07:55:17;;;;;;;1.00;0.70;;;;;;;12.39;60.82;100534.88;5068469;28;20020;-63
2023/10/17 07:57:43;;;;;;;1.55;0.45;;;;;;;12.63;60.58;100527.59;5050360;28;20035;-63
2023/10/17 08:00:27;;;;;;;0.88;0.52;;;;;;;12.83;59.29;100510.78;5068330;28;20029;-63
2023/10/17 08:02:55;;;;;;;5.53;0.70;;;;;;;13.12;58.70;100519.84;5049964;28;20094;-63
2023/10/17 08:05:23;;;;;;;7.97;1.58;;;;;;;13.37;58.21;100529.00;5068026;28;20460;-63
2023/10/17 08:07:49;;;;;;;0.77;0.47;;;;;;;13.57;57.12;100520.81;5068011;28;20025;-63
2023/10/17 08:10:30;;;;;;;1.63;0.82;;;;;;;13.71;57.38;100523.16;5067926;28;20031;-63
2023/10/17 08:13:00;;;;;;;0.50;0.40;;;;;;;13.81;56.26;100513.41;5067798;28;20516;-63
2023/10/17 08:15:32;;;;;;;1.98;0.82;;;;;;;13.64;55.74;100490.28;5067832;28;20516;-64
2023/10/17 08:17:58;;;;;;;5.13;1.00;;;;;;;13.73;55.78;100517.91;5067765;28;20028;-63
2023/10/17 08:23:09;;;;;;;2.15;1.00;;;;;;;13.62;56.48;100513.78;5067546;28;20056;-63
2023/10/17 08:25:52;;;;;;;8.55;1.00;;;;;;;13.47;56.59;100509.66;5067696;28;20031;-63
2023/10/17 08:28:31;;;;;;;0.35;0.35;;;;;;;13.38;57.19;100512.44;5067427;28;20112;-63
2023/10/17 08:31:17;;;;;;;5.35;0.93;;;;;;;13.35;57.32;100520.34;5067810;28;20024;-62
2023/10/17 08:33:44;;;;;;;0.82;0.68;;;;;;;13.31;57.25;100519.53;5067727;28;20048;-63
2023/10/17 08:36:10;;;;;;;2.47;0.90;;;;;;;13.37;56.72;100524.63;5067417;28;20056;-63
2023/10/17 08:38:39;;;;;;;2.22;0.68;;;;;;;13.38;56.92;100531.56;5049346;28;20037;-63
2023/10/17 08:41:06;;;;;;;1.75;0.82;;;;;;;13.38;56.83;100528.97;5067496;28;20028;-63
2023/10/17 08:43:35;;;;;;;2.17;1.05;;;;;;;13.37;56.29;100526.38;5067085;28;20028;-63
2023/10/17 08:46:06;;;;;;;1.23;0.60;;;;;;;13.34;56.33;100524.69;5067217;28;20040;-63
2023/10/17 08:48:32;;;;;;;9.48;1.48;;;;;;;13.27;56.70;100517.88;5067161;28;20017;-64
2023/10/17 08:50:59;;;;;;;6.38;0.60;;;;;;;13.30;56.92;100528.25;5067266;28;20051;-63
2023/10/17 08:53:26;;;;;;;4.70;1.00;;;;;;;13.25;56.91;100527.44;5066996;28;20021;-63
2023/10/17 08:55:52;;;;;;;3.28;0.85;;;;;;;13.24;56.83;100529.19;5067225;28;20028;-63
2023/10/17 08:58:23;;;;;;;3.17;0.85;;;;;;;13.20;57.22;100526.66;5067130;28;20032;-63
2023/10/17 09:00:49;;;;;;;0.55;0.55;;;;;;;13.55;57.06;100514.75;5067390;28;20025;-63
2023/10/17 09:03:23;;;;;;;2.92;0.82;;;;;;;13.98;56.19;100525.22;5066662;28;20040;-64
2023/10/17 09:11:29;;;;;;;1.17;0.63;;;;;;;15.11;53.66;100519.19;5005123;28;20034;-63
2023/10/17 09:16:47;;;;;;;0.63;0.40;;;;;;;14.66;52.53;100517.66;5005050;28;20135;-64
2023/10/17 09:19:14;;;;;;;0.60;0.50;;;;;;;14.38;51.98;100521.78;4988837;28;20040;-65
2023/10/17 09:21:49;;;;;;;2.88;0.73;;;;;;;14.23;52.76;100522.13;5004846;28;20034;-65
2023/10/17 09:24:37;;;;;;;5.20;0.90;;;;;;;14.15;53.11;100531.84;5004987;28;20139;-64
2023/10/17 09:27:10;;;;;;;3.33;1.15;;;;;;;14.04;53.11;100529.47;5004982;28;20041;-64
2023/10/17 09:29:55;;;;;;;4.22;0.40;;;;;;;13.95;52.99;100535.72;5004801;28;20081;-63
2023/10/17 09:32:34;;;;;;;4.30;0.82;;;;;;;13.83;53.69;100526.41;5004504;28;20340;-63
2023/10/17 09:35:10;;;;;;;2.25;0.68;;;;;;;13.78;53.78;100526.50;5004800;28;20590;-63
2023/10/17 09:37:37;;;;;;;0.60;0.43;;;;;;;13.76;53.97;100507.41;5004525;28;20063;-62
2023/10/17 09:40:11;;;;;;;6.05;0.70;;;;;;;13.59;53.92;100515.56;5004562;28;20066;-63
2023/10/17 09:42:44;;;;;;;0.77;0.77;;;;;;;13.65;54.71;100523.28;5004409;28;20026;-63
2023/10/17 09:45:14;;;;;;;2.03;1.48;;;;;;;13.94;54.00;100524.47;5053727;28;20051;-63
2023/10/17 09:47:44;;;;;;;0.45;0.43;;;;;;;13.93;52.98;100506.22;5065785;28;20028;-63
2023/10/17 09:50:17;;;;;;;2.42;0.73;;;;;;;13.85;53.23;100514.22;5066178;28;20025;-63
2023/10/17 09:52:53;;;;;;;1.50;0.57;;;;;;;13.71;53.57;100520.53;5065899;28;20020;-63
2023/10/17 09:55:23;;;;;;;1.83;0.82;;;;;;;13.61;53.79;100519.88;5049500;28;20477;-63
2023/10/17 09:58:08;;;;;;;1.50;0.85;;;;;;;13.83;54.22;100513.38;5065837;28;20048;-63
2023/10/17 10:00:46;;;;;;;0.70;0.52;;;;;;;14.05;53.71;100507.69;5066065;28;20075;-64
2023/10/17 10:03:12;;;;;;;1.70;0.57;;;;;;;14.06;53.55;100514.63;5065151;28;20029;-63
2023/10/17 10:05:38;;;;;;;0.88;0.60;;;;;;;14.07;53.94;100509.41;5065471;28;20024;-63
2023/10/17 10:08:33;;;;;;;1.88;0.80;;;;;;;14.58;52.71;100504.78;5066098;28;20057;-64
2023/10/17 10:11:00;;;;;;;3.33;0.50;;;;;;;14.49;52.31;100495.41;5065702;28;20029;-63
2023/10/17 10:13:26;;;;;;;0.88;0.45;;;;;;;14.27;52.68;100499.38;5065546;28;20021;-63
2023/10/17 10:15:53;;;;;;;4.40;0.70;;;;;;;14.01;53.33;100488.63;5065669;28;20017;-63
2023/10/17 10:18:34;;;;;;;2.30;0.82;;;;;;;13.81;53.75;100489.91;5065478;28;20032;-62
2023/10/17 10:21:01;;;;;;;0.90;0.70;;;;;;;13.77;53.72;100495.22;5065675;28;20025;-63
2023/10/17 10:23:30;;;;;;;2.63;0.80;;;;;;;13.68;54.26;100501.47;5047781;28;20049;-62
2023/10/17 10:26:11;;;;;;;0.68;0.65;;;;;;;13.55;54.66;100519.13;5065625;28;20032;-62
2023/10/17 10:28:39;;;;;;;0.80;0.50;;;;;;;13.46;55.01;100523.59;5065626;28;20059;-63
2023/10/17 10:31:24;;;;;;;4.15;0.65;;;;;;;13.34;55.21;100506.44;5065452;28;20032;-62
2023/10/17 10:33:52;;;;;;;3.33;0.75;;;;;;;13.23;55.63;100510.97;5065142;28;20089;-63
2023/10/17 10:36:18;;;;;;;1.58;0.68;;;;;;;13.17;55.68;100505.88;5065255;28;20108;-63
2023/10/17 10:38:44;;;;;;;2.03;0.93;;;;;;;13.12;55.83;100503.34;5065554;28;20075;-63
2023/10/17 10:41:13;;;;;;;0.40;0.40;;;;;;;13.02;55.98;100498.28;5065418;28;20029;-63
2023/10/17 10:43:42;;;;;;;3.58;0.43;;;;;;;12.99;56.42;100506.16;5065246;28;20025;-63
2023/10/17 10:46:09;;;;;;;0.93;0.60;;;;;;;12.93;56.85;100505.41;5065008;28;20045;-63
2023/10/17 10:48:34;;;;;;;5.70;1.30;;;;;;;12.88;57.21;100506.34;5065090;28;20084;-64
2023/10/17 10:51:00;;;;;;;1.25;0.55;;;;;;;12.84;57.76;100504.66;5065498;28;20059;-63
2023/10/17 10:53:30;;;;;;;1.45;0.77;;;;;;;12.80;58.03;100502.13;5065353;28;20354;-63
2023/10/17 10:56:03;;;;;;;4.13;0.75;;;;;;;12.83;58.06;100500.34;5065280;28;20052;-63
2023/10/17 10:58:33;;;;;;;6.25;1.17;;;;;;;12.76;58.68;100494.38;5065202;28;20031;-63
2023/10/17 11:01:05;;;;;;;2.38;0.80;;;;;;;12.64;59.46;100489.34;5065400;28;20032;-63
2023/10/17 11:03:33;;;;;;;;;;;;;;;12.64;60.10;100490.22;5065274;28;20029;-63
2023/10/17 11:06:03;;;;;;;1.17;0.60;;;;;;;12.52;61.04;100485.22;5047205;28;19913;-64
2023/10/17 11:08:43;;;;;;;0.88;0.55;;;;;;;12.46;61.02;100477.50;5065356;28;20078;-62
2023/10/17 11:11:12;;;;;;;0.68;0.52;;;;;;;12.52;61.06;100480.00;5065324;28;20033;-63
2023/10/17 11:13:40;;;;;;;8.77;1.00;;;;;;;12.58;61.07;100471.22;5065017;28;20104;-64
2023/10/17 11:16:06;;;;;;;0.57;0.57;;;;;;;12.68;61.43;100469.34;5067318;28;20025;-63
2023/10/17 11:18:43;;;;;;;2.85;1.05;;;;;;;12.82;61.67;100482.13;5068844;28;20047;-63
2023/10/17 11:21:10;;;;;;;8.15;1.33;;;;;;;12.87;61.35;100468.16;5034997;28;20032;-63
2023/10/17 11:23:39;;;;;;;3.92;1.17;;;;;;;12.84;61.42;100468.19;5068628;28;20024;-63
2023/10/17 11:26:12;;;;;;;4.20;0.75;;;;;;;12.84;61.44;100467.34;5068901;28;20028;-64
2023/10/17 11:28:51;;;;;;;3.22;1.38;;;;;;;12.82;61.59;100463.91;5067463;28;20025;-63
2023/10/17 11:31:24;;;;;;;3.22;1.08;;;;;;;12.79;61.75;100464.81;5068923;28;20416;-63
2023/10/17 11:34:08;;;;;;;2.20;0.55;;;;;;;12.66;62.14;100448.53;5068628;28;20370;-63
2023/10/17 11:36:47;;;;;;;1.85;0.93;;;;;;;12.77;62.41;100461.38;5068602;28;20021;-63
2023/10/17 11:39:15;;;;;;;10.23;0.95;;;;;;;12.85;62.34;100459.50;5068619;28;20107;-63
2023/10/17 11:41:53;;;;;;;2.47;0.85;;;;;;;12.92;62.17;100455.06;5068447;28;20028;-62
2023/10/17 11:44:23;;;;;;;2.97;0.77;;;;;;;12.93;61.87;100466.31;5067221;28;20076;-64
2023/10/17 11:46:58;;;;;;;1.17;0.80;;;;;;;12.89;61.91;100453.34;5066874;28;20052;-64
2023/10/17 11:49:26;;;;;;;3.15;1.27;;;;;;;12.87;62.00;100454.25;5068430;28;20029;-63
2023/10/17 11:52:04;;;;;;;2.30;0.93;;;;;;;12.89;61.92;100442.09;5068157;28;20025;-63
2023/10/17 11:54:30;;;;;;;3.33;1.13;;;;;;;12.82;61.88;100456.94;5068434;28;20043;-64
2023/10/17 11:56:55;;;;;;;10.20;2.13;;;;;;;12.73;61.98;100444.94;5068012;28;20025;-62
2023/10/17 11:59:25;;;;;;;3.25;1.42;;;;;;;12.70;62.26;100441.53;5068260;28;20074;-63
2023/10/17 12:01:53;;;;;;;3.83;0.82;;;;;;;12.72;62.77;100448.44;5067900;28;20021;-63
2023/10/17 12:04:19;;;;;;;2.55;0.82;;;;;;;12.77;62.57;100443.13;5068028;28;20017;-64
2023/10/17 12:06:48;;;;;;;3.65;0.98;;;;;;;12.83;62.32;100447.38;5068179;28;20032;-63
2023/10/17 12:09:17;;;;;;;3.38;0.70;;;;;;;12.84;62.19;100439.53;5068089;28;20021;-64
2023/10/17 12:11:49;;;;;;;3.72;1.25;;;;;;;12.77;62.35;100448.34;5068039;28;20017;-63
2023/10/17 12:14:22;;;;;;;1.40;0.82;;;;;;;12.75;62.33;100442.28;5067991;28;20025;-63
2023/10/17 12:16:48;;;;;;;1.17;0.65;;;;;;;12.70;62.51;100444.97;5067751;28;20028;-62
2023/10/17 12:19:17;;;;;;;3.20;0.63;;;;;;;12.72;62.62;100437.13;5067804;28;20021;-64
2023/10/17 12:21:49;;;;;;;3.00;1.38;;;;;;;12.70;62.19;100438.94;5049625;28;20020;-63
2023/10/17 12:24:27;;;;;;;1.50;0.90;;;;;;;12.52;63.07;100439.19;5067719;28;20028;-63
2023/10/17 12:26:53;;;;;;;2.65;0.98;;;;;;;12.47;63.29;100437.56;5067168;28;20044;-63
2023/10/17 12:29:19;;;;;;;5.13;1.13;;;;;;;12.43;63.63;100443.69;5067472;28;20025;-63
2023/10/17 12:31:45;;;;;;;1.25;0.85;;;;;;;12.42;63.60;100431.53;5067362;28;20045;-63
2023/10/17 12:34:11;;;;;;;4.20;1.40;;;;;;;12.47;63.52;100434.94;5067387;28;20084;-64
2023/10/17 12:36:37;;;;;;;3.20;1.35;;;;;;;12.47;63.56;100437.56;5067489;28;20021;-63
2023/10/17 12:39:03;;;;;;;4.03;1.02;;;;;;;12.50;63.84;100438.38;5067350;28;20025;-64
2023/10/17 12:41:30;;;;;;;1.00;0.80;;;;;;;12.54;63.65;100433.13;5067277;28;20346;-62
2023/10/17 12:43:55;;;;;;;1.27;0.73;;;;;;;12.60;63.42;100443.44;5067035;28;20021;-63
2023/10/17 12:46:20;;;;;;;3.85;0.88;;;;;;;12.60;63.46;100440.81;5066903;28;20063;-63
2023/10/17 12:48:46;;;;;;;1.58;1.10;;;;;;;12.58;63.30;100429.56;5067014;28;20021;-63
2023/10/17 12:51:12;;;;;;;6.85;0.82;;;;;;;12.62;63.16;100426.03;5067349;28;20021;-63
2023/10/17 12:53:38;;;;;;;0.63;0.60;;;;;;;12.54;63.35;100407.91;5066931;28;20013;-63
2023/10/17 12:56:05;;;;;;;3.88;1.38;;;;;;;12.53;63.46;100419.22;5067038;28;20021;-62
2023/10/17 12:58:32;;;;;;;2.67;1.00;;;;;;;12.57;63.41;100420.88;5066973;28;20032;-63
2023/10/17 13:00:58;;;;;;;2.97;0.93;;;;;;;12.55;63.59;100409.66;5067102;28;20024;-63
2023/10/17 13:03:25;;;;;;;1.10;0.75;;;;;;;12.48;63.74;100405.41;5066614;28;20025;-64
2023/10/17 13:05:51;;;;;;;4.35;1.25;;;;;;;12.49;63.85;100409.75;5066898;28;20024;-63
2023/10/17 13:08:16;;;;;;;1.02;0.65;;;;;;;12.43;64.63;100409.84;5066763;28;20029;-64
2023/10/17 13:10:42;;;;;;;0.85;0.60;;;;;;;12.42;64.00;100406.38;5066758;28;20032;-64
2023/10/17 13:13:07;;;;;;;3.05;1.00;;;;;;;12.41;64.02;100396.88;5066723;28;20029;-64
2023/10/17 13:15:32;;;;;;;2.53;1.13;;;;;;;12.40;63.97;100389.91;5065385;28;20492;-62
2023/10/17 13:18:03;;;;;;;0.98;0.60;;;;;;;12.49;64.10;100396.72;5066425;28;20404;-63
2023/10/17 13:20:28;;;;;;;1.10;0.63;;;;;;;12.52;63.89;100391.47;5066557;28;20021;-63
2023/10/17 13:23:03;;;;;;;9.80;1.27;;;;;;;12.47;63.97;100399.38;5065121;28;20023;-63
2023/10/17 13:25:41;;;;;;;8.95;1.60;;;;;;;12.44;64.53;100390.72;5066597;28;20052;-63
2023/10/17 13:28:07;;;;;;;4.47;0.95;;;;;;;12.39;64.88;100399.50;5066385;28;20021;-62
2023/10/17 13:30:33;;;;;;;2.10;1.35;;;;;;;12.37;64.83;100398.66;5066344;28;20029;-64
2023/10/17 13:32:58;;;;;;;8.68;1.40;;;;;;;12.36;64.71;100396.91;5066144;28;20031;-63
2023/10/17 13:35:24;;;;;;;1.30;0.60;;;;;;;12.38;64.57;100397.75;5066271;28;20081;-63
2023/10/17 13:37:54;;;;;;;2.42;0.88;;;;;;;12.35;64.51;100400.41;5066423;28;20044;-64
2023/10/17 13:40:22;;;;;;;3.15;0.60;;;;;;;12.29;64.65;100390.09;5048170;28;20029;-63
2023/10/17 13:42:53;;;;;;;6.80;1.17;;;;;;;12.27;64.64;100386.66;5064744;28;20032;-64
2023/10/17 13:45:22;;;;;;;1.63;0.60;;;;;;;12.35;64.75;100390.00;5066124;28;20057;-63
2023/10/17 13:47:54;;;;;;;1.05;0.95;;;;;;;12.27;65.08;100377.09;5065763;28;20021;-64
2023/10/17 13:50:20;;;;;;;;;;;;;;;12.34;65.00;100392.63;5066251;28;20028;-64
2023/10/17 13:52:46;;;;;;;3.53;1.38;;;;;;;12.23;65.28;100392.78;5065713;28;19919;-64
2023/10/17 13:55:14;;;;;;;6.95;1.65;;;;;;;12.26;65.33;100377.13;5065921;28;20025;-63
2023/10/17 13:57:46;;;;;;;6.05;1.85;;;;;;;12.24;65.19;100381.50;5065934;28;20033;-63
2023/10/17 14:00:19;;;;;;;7.97;0.93;;;;;;;12.28;65.27;100380.56;5065894;28;20432;-63